createdAt,value
2022-09-17T00:00:56.229Z,997.87
2022-09-17T00:01:56.285Z,997.86
2022-09-17T00:02:56.260Z,997.86
2022-09-17T00:03:56.216Z,997.87
2022-09-17T00:04:56.249Z,997.94
2022-09-17T00:05:56.215Z,997.93
2022-09-17T00:06:56.235Z,997.90
2022-09-17T00:07:56.201Z,997.94
2022-09-17T00:08:56.210Z,997.87
2022-09-17T00:09:56.290Z,997.91
2022-09-17T00:10:56.194Z,997.98
2022-09-17T00:11:56.197Z,997.97
2022-09-17T00:12:56.209Z,997.95
2022-09-17T00:13:56.213Z,997.98
2022-09-17T00:14:56.185Z,997.99
2022-09-17T00:15:56.285Z,997.99
2022-09-17T00:17:01.203Z,997.97
2022-09-17T00:17:56.173Z,997.99
2022-09-17T00:18:56.173Z,998.05
2022-09-17T00:19:56.173Z,998.03
2022-09-17T00:20:56.147Z,998.05
2022-09-17T00:21:56.155Z,998.04
2022-09-17T00:22:56.182Z,998.06
2022-09-17T00:23:56.235Z,998.08
2022-09-17T00:24:56.175Z,998.10
2022-09-17T00:25:56.256Z,998.07
2022-09-17T00:26:56.163Z,998.12
2022-09-17T00:27:56.135Z,998.12
2022-09-17T00:28:56.131Z,998.13
2022-09-17T00:29:56.141Z,998.10
2022-09-17T00:30:56.155Z,998.15
2022-09-17T00:31:56.142Z,998.14
2022-09-17T00:32:56.130Z,998.12
2022-09-17T00:33:56.137Z,998.16
2022-09-17T00:34:56.114Z,998.16
2022-09-17T00:35:56.110Z,998.19
2022-09-17T00:36:56.114Z,998.17
2022-09-17T00:37:56.112Z,998.26
2022-09-17T00:38:56.220Z,998.17
2022-09-17T00:39:56.209Z,998.18
2022-09-17T00:40:56.098Z,998.23
2022-09-17T00:41:56.204Z,998.24
2022-09-17T00:42:56.089Z,998.18
2022-09-17T00:43:56.082Z,998.22
2022-09-17T00:44:56.100Z,998.23
2022-09-17T00:45:56.082Z,998.22
2022-09-17T00:46:56.141Z,998.20
2022-09-17T00:47:56.139Z,998.25
2022-09-17T00:48:56.075Z,998.17
2022-09-17T00:49:56.071Z,998.24
2022-09-17T00:50:56.112Z,998.21
2022-09-17T00:52:00.253Z,998.24
2022-09-17T00:52:56.060Z,998.16
2022-09-17T00:53:56.124Z,998.22
2022-09-17T00:54:56.055Z,998.19
2022-09-17T00:55:56.077Z,998.18
2022-09-17T00:56:56.057Z,998.19
2022-09-17T00:57:56.153Z,998.27
2022-09-17T00:58:56.035Z,998.26
2022-09-17T00:59:56.041Z,998.28
2022-09-17T01:00:56.095Z,998.31
2022-09-17T01:01:56.073Z,998.31
2022-09-17T01:02:56.088Z,998.29
2022-09-17T01:03:56.067Z,998.37
2022-09-17T01:04:56.032Z,998.30
2022-09-17T01:05:56.021Z,998.32
2022-09-17T01:06:56.011Z,998.34
2022-09-17T01:07:56.026Z,998.35
2022-09-17T01:08:56.083Z,998.32
2022-09-17T01:09:56.012Z,998.31
2022-09-17T01:10:56.000Z,998.38
2022-09-17T01:11:56.002Z,998.30
2022-09-17T01:12:55.997Z,998.36
2022-09-17T01:13:56.094Z,998.35
2022-09-17T01:14:56.004Z,998.40
2022-09-17T01:15:56.021Z,998.42
2022-09-17T01:16:55.992Z,998.44
2022-09-17T01:17:55.974Z,998.40
2022-09-17T01:18:55.978Z,998.41
2022-09-17T01:19:55.989Z,998.43
2022-09-17T01:20:55.965Z,998.42
2022-09-17T01:21:55.960Z,998.48
2022-09-17T01:22:55.952Z,998.47
2022-09-17T01:23:56.004Z,998.49
2022-09-17T01:24:55.967Z,998.55
2022-09-17T01:25:55.951Z,998.56
2022-09-17T01:26:55.957Z,998.57
2022-09-17T01:27:55.991Z,998.57
2022-09-17T01:28:55.959Z,998.60
2022-09-17T01:29:56.041Z,998.60
2022-09-17T01:30:55.956Z,998.60
2022-09-17T01:31:55.928Z,998.59
2022-09-17T01:32:55.943Z,998.53
2022-09-17T01:33:55.940Z,998.54
2022-09-17T01:34:55.932Z,998.58
2022-09-17T01:35:55.933Z,998.52
2022-09-17T01:36:55.929Z,998.51
2022-09-17T01:37:55.921Z,998.53
2022-09-17T01:38:55.978Z,998.50
2022-09-17T01:39:55.956Z,998.52
2022-09-17T01:40:55.923Z,998.51
2022-09-17T01:41:55.928Z,998.47
2022-09-17T01:42:55.899Z,998.53
2022-09-17T01:43:55.884Z,998.53
2022-09-17T01:44:55.934Z,998.48
2022-09-17T01:45:55.986Z,998.46
2022-09-17T01:46:55.929Z,998.50
2022-09-17T01:47:55.877Z,998.50
2022-09-17T01:48:55.871Z,998.53
2022-09-17T01:49:55.883Z,998.55
2022-09-17T01:50:55.883Z,998.55
2022-09-17T01:51:55.873Z,998.56
2022-09-17T01:52:55.873Z,998.53
2022-09-17T01:53:55.890Z,998.59
2022-09-17T01:54:55.856Z,998.60
2022-09-17T01:55:55.864Z,998.62
2022-09-17T01:56:55.861Z,998.66
2022-09-17T01:57:55.853Z,998.67
2022-09-17T01:58:55.854Z,998.65
2022-09-17T01:59:55.853Z,998.70
2022-09-17T02:00:55.941Z,998.66
2022-09-17T02:01:56.025Z,998.66
2022-09-17T02:02:55.837Z,998.70
2022-09-17T02:03:55.920Z,998.72
2022-09-17T02:04:55.828Z,998.76
2022-09-17T02:05:55.847Z,998.75
2022-09-17T02:06:55.816Z,998.78
2022-09-17T02:07:55.836Z,998.80
2022-09-17T02:08:55.819Z,998.79
2022-09-17T02:09:55.808Z,998.77
2022-09-17T02:10:55.806Z,998.80
2022-09-17T02:11:55.798Z,998.81
2022-09-17T02:12:55.803Z,998.81
2022-09-17T02:13:55.806Z,998.77
2022-09-17T02:14:55.794Z,998.78
2022-09-17T02:15:55.816Z,998.80
2022-09-17T02:16:55.787Z,998.77
2022-09-17T02:17:55.878Z,998.79
2022-09-17T02:18:55.827Z,998.77
2022-09-17T02:19:55.777Z,998.78
2022-09-17T02:20:55.787Z,998.82
2022-09-17T02:21:55.779Z,998.79
2022-09-17T02:22:55.780Z,998.85
2022-09-17T02:23:55.782Z,998.79
2022-09-17T02:24:55.755Z,998.80
2022-09-17T02:25:55.767Z,998.78
2022-09-17T02:26:55.755Z,998.79
2022-09-17T02:27:55.763Z,998.78
2022-09-17T02:28:55.752Z,998.81
2022-09-17T02:29:55.747Z,998.79
2022-09-17T02:30:55.808Z,998.76
2022-09-17T02:31:55.743Z,998.78
2022-09-17T02:32:55.747Z,998.79
2022-09-17T02:33:55.843Z,998.78
2022-09-17T02:34:55.726Z,998.79
2022-09-17T02:35:55.725Z,998.79
2022-09-17T02:36:55.728Z,998.78
2022-09-17T02:37:55.736Z,998.76
2022-09-17T02:38:55.714Z,998.73
2022-09-17T02:39:55.763Z,998.74
2022-09-17T02:40:55.707Z,998.75
2022-09-17T02:41:55.722Z,998.75
2022-09-17T02:42:55.717Z,998.76
2022-09-17T02:43:55.715Z,998.75
2022-09-17T02:44:55.723Z,998.73
2022-09-17T02:45:55.732Z,998.72
2022-09-17T02:46:55.717Z,998.76
2022-09-17T02:47:55.693Z,998.74
2022-09-17T02:48:55.699Z,998.72
2022-09-17T02:49:55.779Z,998.73
2022-09-17T02:50:55.688Z,998.72
2022-09-17T02:51:55.681Z,998.73
2022-09-17T02:52:55.701Z,998.70
2022-09-17T02:53:55.684Z,998.70
2022-09-17T02:54:55.691Z,998.71
2022-09-17T02:55:55.660Z,998.70
2022-09-17T02:56:55.661Z,998.67
2022-09-17T02:57:55.668Z,998.68
2022-09-17T02:58:55.684Z,998.66
2022-09-17T02:59:55.654Z,998.66
2022-09-17T03:00:55.714Z,998.68
2022-09-17T03:01:55.699Z,998.73
2022-09-17T03:02:55.646Z,998.64
2022-09-17T03:03:55.648Z,998.69
2022-09-17T03:04:55.647Z,998.66
2022-09-17T03:05:55.735Z,998.69
2022-09-17T03:06:55.633Z,998.66
2022-09-17T03:07:55.634Z,998.65
2022-09-17T03:08:55.661Z,998.65
2022-09-17T03:09:55.627Z,998.66
2022-09-17T03:10:55.622Z,998.63
2022-09-17T03:11:55.626Z,998.65
2022-09-17T03:12:55.622Z,998.63
2022-09-17T03:13:55.623Z,998.65
2022-09-17T03:14:55.610Z,998.61
2022-09-17T03:15:55.665Z,998.64
2022-09-17T03:16:55.687Z,998.63
2022-09-17T03:17:55.604Z,998.61
2022-09-17T03:18:55.600Z,998.65
2022-09-17T03:19:55.601Z,998.65
2022-09-17T03:20:55.590Z,998.67
2022-09-17T03:21:55.686Z,998.67
2022-09-17T03:22:55.579Z,998.67
2022-09-17T03:23:55.663Z,998.67
2022-09-17T03:24:55.585Z,998.67
2022-09-17T03:25:55.597Z,998.64
2022-09-17T03:26:55.576Z,998.70
2022-09-17T03:27:55.573Z,998.64
2022-09-17T03:28:55.575Z,998.60
2022-09-17T03:29:55.594Z,998.64
2022-09-17T03:30:55.650Z,998.64
2022-09-17T03:31:55.568Z,998.62
2022-09-17T03:32:55.564Z,998.65
2022-09-17T03:33:55.557Z,998.63
2022-09-17T03:34:55.559Z,998.66
2022-09-17T03:35:55.559Z,998.65
2022-09-17T03:36:55.545Z,998.63
2022-09-17T03:37:55.648Z,998.63
2022-09-17T03:38:55.585Z,998.62
2022-09-17T03:39:55.616Z,998.62
2022-09-17T03:40:55.556Z,998.60
2022-09-17T03:41:55.529Z,998.60
2022-09-17T03:42:55.532Z,998.60
2022-09-17T03:43:55.523Z,998.62
2022-09-17T03:44:55.534Z,998.60
2022-09-17T03:45:55.516Z,998.65
2022-09-17T03:46:55.598Z,998.62
2022-09-17T03:47:55.514Z,998.67
2022-09-17T03:48:55.612Z,998.70
2022-09-17T03:49:55.513Z,998.71
2022-09-17T03:50:56.062Z,998.68
2022-09-17T03:51:55.502Z,998.71
2022-09-17T03:52:55.501Z,998.70
2022-09-17T03:53:55.589Z,998.73
2022-09-17T03:54:55.513Z,998.82
2022-09-17T03:55:55.488Z,998.76
2022-09-17T03:56:55.482Z,998.70
2022-09-17T03:57:55.510Z,998.74
2022-09-17T03:58:55.485Z,998.75
2022-09-17T03:59:55.499Z,998.76
2022-09-17T04:00:55.490Z,998.85
2022-09-17T04:01:55.559Z,998.77
2022-09-17T04:02:55.566Z,998.80
2022-09-17T04:03:55.646Z,998.80
2022-09-17T04:04:55.474Z,998.76
2022-09-17T04:05:55.458Z,998.74
2022-09-17T04:06:55.452Z,998.82
2022-09-17T04:07:55.465Z,998.79
2022-09-17T04:08:55.454Z,998.76
2022-09-17T04:09:55.564Z,998.78
2022-09-17T04:10:55.449Z,998.80
2022-09-17T04:11:55.448Z,998.84
2022-09-17T04:12:55.444Z,998.82
2022-09-17T04:13:55.438Z,998.79
2022-09-17T04:14:55.438Z,998.85
2022-09-17T04:15:55.499Z,998.90
2022-09-17T04:16:55.425Z,998.88
2022-09-17T04:17:55.422Z,998.86
2022-09-17T04:18:55.421Z,998.84
2022-09-17T04:19:55.422Z,998.89
2022-09-17T04:20:55.424Z,998.86
2022-09-17T04:21:55.416Z,998.87
2022-09-17T04:22:55.411Z,998.87
2022-09-17T04:23:55.411Z,998.90
2022-09-17T04:24:55.408Z,998.87
2022-09-17T04:25:55.506Z,998.87
2022-09-17T04:26:55.393Z,998.85
2022-09-17T04:27:55.397Z,998.83
2022-09-17T04:28:55.481Z,998.84
2022-09-17T04:29:55.405Z,998.88
2022-09-17T04:30:55.452Z,998.88
2022-09-17T04:31:55.386Z,998.86
2022-09-17T04:32:55.401Z,998.93
2022-09-17T04:33:55.383Z,998.84
2022-09-17T04:34:55.423Z,998.86
2022-09-17T04:35:55.376Z,998.85
2022-09-17T04:36:55.369Z,998.82
2022-09-17T04:37:55.361Z,998.88
2022-09-17T04:38:55.365Z,998.86
2022-09-17T04:39:55.425Z,998.90
2022-09-17T04:40:55.383Z,998.85
2022-09-17T04:41:55.471Z,998.90
2022-09-17T04:42:55.370Z,998.87
2022-09-17T04:43:55.375Z,998.89
2022-09-17T04:44:55.352Z,998.90
2022-09-17T04:45:55.341Z,998.94
2022-09-17T04:46:55.404Z,998.91
2022-09-17T04:47:55.349Z,998.94
2022-09-17T04:48:55.330Z,998.95
2022-09-17T04:49:55.339Z,998.91
2022-09-17T04:50:55.345Z,998.91
2022-09-17T04:51:55.335Z,998.95
2022-09-17T04:52:55.331Z,998.97
2022-09-17T04:53:55.331Z,998.92
2022-09-17T04:54:55.336Z,998.97
2022-09-17T04:55:55.310Z,998.92
2022-09-17T04:56:55.316Z,998.94
2022-09-17T04:57:55.474Z,998.94
2022-09-17T04:58:55.302Z,998.89
2022-09-17T04:59:55.309Z,998.93
2022-09-17T05:00:55.356Z,998.95
2022-09-17T05:01:55.337Z,999.01
2022-09-17T05:02:55.321Z,998.98
2022-09-17T05:03:55.310Z,999.00
2022-09-17T05:04:55.355Z,998.99
2022-09-17T05:05:55.325Z,999.02
2022-09-17T05:06:55.330Z,999.04
2022-09-17T05:07:55.290Z,999.07
2022-09-17T05:08:55.278Z,999.08
2022-09-17T05:09:55.277Z,999.09
2022-09-17T05:10:55.280Z,999.12
2022-09-17T05:11:55.295Z,999.03
2022-09-17T05:12:55.279Z,999.08
2022-09-17T05:13:55.381Z,999.03
2022-09-17T05:14:55.286Z,999.11
2022-09-17T05:15:55.384Z,999.13
2022-09-17T05:16:55.263Z,999.11
2022-09-17T05:17:55.254Z,999.08
2022-09-17T05:18:55.256Z,999.08
2022-09-17T05:19:55.283Z,999.12
2022-09-17T05:20:55.252Z,999.16
2022-09-17T05:21:55.246Z,999.16
2022-09-17T05:22:55.262Z,999.15
2022-09-17T05:23:55.250Z,999.17
2022-09-17T05:24:55.250Z,999.13
2022-09-17T05:25:55.235Z,999.15
2022-09-17T05:26:55.235Z,999.20
2022-09-17T05:27:55.235Z,999.20
2022-09-17T05:28:55.358Z,999.23
2022-09-17T05:29:55.312Z,999.20
2022-09-17T05:30:55.266Z,999.21
2022-09-17T05:31:55.225Z,999.22
2022-09-17T05:32:55.224Z,999.20
2022-09-17T05:33:55.206Z,999.21
2022-09-17T05:34:55.210Z,999.20
2022-09-17T05:35:55.221Z,999.24
2022-09-17T05:36:55.201Z,999.24
2022-09-17T05:37:55.201Z,999.22
2022-09-17T05:38:55.193Z,999.23
2022-09-17T05:39:55.263Z,999.25
2022-09-17T05:40:55.186Z,999.19
2022-09-17T05:41:55.187Z,999.27
2022-09-17T05:42:55.173Z,999.23
2022-09-17T05:43:55.178Z,999.29
2022-09-17T05:44:55.179Z,999.26
2022-09-17T05:45:55.266Z,999.25
2022-09-17T05:46:55.234Z,999.27
2022-09-17T05:47:55.162Z,999.29
2022-09-17T05:48:55.175Z,999.27
2022-09-17T05:49:55.157Z,999.25
2022-09-17T05:50:55.165Z,999.27
2022-09-17T05:51:55.150Z,999.30
2022-09-17T05:52:55.157Z,999.29
2022-09-17T05:53:55.257Z,999.29
2022-09-17T05:54:55.150Z,999.31
2022-09-17T05:55:55.150Z,999.36
2022-09-17T05:56:55.136Z,999.37
2022-09-17T05:57:55.138Z,999.33
2022-09-17T05:58:55.140Z,999.31
2022-09-17T05:59:55.141Z,999.36
2022-09-17T06:00:55.127Z,999.34
2022-09-17T06:01:55.298Z,999.34
2022-09-17T06:02:55.190Z,999.38
2022-09-17T06:03:55.127Z,999.42
2022-09-17T06:04:55.141Z,999.37
2022-09-17T06:05:55.142Z,999.33
2022-09-17T06:06:55.125Z,999.37
2022-09-17T06:07:55.118Z,999.39
2022-09-17T06:08:55.111Z,999.40
2022-09-17T06:09:55.102Z,999.40
2022-09-17T06:10:58.995Z,999.39
2022-09-17T06:11:55.097Z,999.40
2022-09-17T06:12:55.105Z,999.41
2022-09-17T06:13:55.091Z,999.42
2022-09-17T06:14:55.085Z,999.43
2022-09-17T06:15:55.148Z,999.46
2022-09-17T06:16:55.092Z,999.47
2022-09-17T06:17:55.195Z,999.45
2022-09-17T06:18:55.086Z,999.46
2022-09-17T06:19:55.077Z,999.52
2022-09-17T06:20:55.088Z,999.50
2022-09-17T06:21:55.069Z,999.56
2022-09-17T06:22:55.074Z,999.55
2022-09-17T06:23:55.076Z,999.58
2022-09-17T06:24:55.064Z,999.60
2022-09-17T06:25:55.058Z,999.61
2022-09-17T06:26:55.066Z,999.53
2022-09-17T06:27:55.074Z,999.55
2022-09-17T06:28:55.056Z,999.60
2022-09-17T06:29:55.046Z,999.61
2022-09-17T06:30:55.042Z,999.53
2022-09-17T06:31:55.117Z,999.60
2022-09-17T06:32:55.050Z,999.57
2022-09-17T06:33:55.184Z,999.56
2022-09-17T06:34:55.035Z,999.56
2022-09-17T06:35:55.029Z,999.53
2022-09-17T06:36:55.034Z,999.54
2022-09-17T06:37:55.040Z,999.58
2022-09-17T06:38:55.063Z,999.61
2022-09-17T06:39:55.113Z,999.57
2022-09-17T06:40:55.038Z,999.59
2022-09-17T06:41:55.066Z,999.60
2022-09-17T06:42:55.041Z,999.59
2022-09-17T06:43:55.014Z,999.64
2022-09-17T06:44:55.024Z,999.67
2022-09-17T06:45:55.023Z,999.64
2022-09-17T06:46:55.088Z,999.62
2022-09-17T06:47:55.021Z,999.64
2022-09-17T06:48:55.029Z,999.64
2022-09-17T06:49:55.103Z,999.63
2022-09-17T06:50:55.028Z,999.65
2022-09-17T06:51:55.000Z,999.60
2022-09-17T06:52:55.001Z,999.61
2022-09-17T06:53:55.019Z,999.65
2022-09-17T06:54:54.990Z,999.67
2022-09-17T06:55:55.027Z,999.68
2022-09-17T06:56:55.003Z,999.70
2022-09-17T06:57:54.979Z,999.70
2022-09-17T06:58:54.984Z,999.66
2022-09-17T06:59:54.990Z,999.70
2022-09-17T07:00:55.078Z,999.73
2022-09-17T07:01:55.102Z,999.76
2022-09-17T07:02:55.017Z,999.71
2022-09-17T07:03:54.973Z,999.71
2022-09-17T07:04:54.978Z,999.76
2022-09-17T07:05:55.110Z,999.79
2022-09-17T07:06:54.956Z,999.74
2022-09-17T07:07:54.969Z,999.73
2022-09-17T07:08:54.976Z,999.73
2022-09-17T07:09:54.954Z,999.74
2022-09-17T07:10:54.971Z,999.72
2022-09-17T07:11:54.988Z,999.75
2022-09-17T07:12:54.971Z,999.70
2022-09-17T07:13:54.959Z,999.71
2022-09-17T07:14:54.955Z,999.74
2022-09-17T07:15:54.988Z,999.67
2022-09-17T07:16:54.956Z,999.70
2022-09-17T07:17:54.933Z,999.70
2022-09-17T07:18:54.923Z,999.68
2022-09-17T07:19:54.932Z,999.73
2022-09-17T07:20:54.947Z,999.71
2022-09-17T07:21:55.024Z,999.70
2022-09-17T07:22:54.937Z,999.75
2022-09-17T07:23:54.928Z,999.74
2022-09-17T07:24:54.925Z,999.82
2022-09-17T07:25:54.922Z,999.78
2022-09-17T07:26:54.947Z,999.78
2022-09-17T07:27:54.927Z,999.79
2022-09-17T07:28:54.925Z,999.84
2022-09-17T07:29:54.904Z,999.76
2022-09-17T07:30:54.940Z,999.80
2022-09-17T07:31:54.899Z,999.79
2022-09-17T07:32:54.903Z,999.73
2022-09-17T07:33:54.892Z,999.77
2022-09-17T07:34:54.882Z,999.72
2022-09-17T07:35:54.899Z,999.74
2022-09-17T07:36:54.975Z,999.79
2022-09-17T07:37:55.009Z,999.73
2022-09-17T07:38:54.924Z,999.78
2022-09-17T07:39:54.966Z,999.79
2022-09-17T07:40:54.892Z,999.76
2022-09-17T07:41:54.879Z,999.73
2022-09-17T07:42:54.887Z,999.69
2022-09-17T07:43:54.884Z,999.70
2022-09-17T07:44:57.471Z,999.72
2022-09-17T07:45:54.873Z,999.72
2022-09-17T07:46:54.940Z,999.68
2022-09-17T07:47:54.868Z,999.71
2022-09-17T07:48:54.864Z,999.71
2022-09-17T07:49:54.868Z,999.67
2022-09-17T07:50:54.876Z,999.69
2022-09-17T07:51:54.879Z,999.72
2022-09-17T07:52:54.855Z,999.67
2022-09-17T07:53:54.941Z,999.74
2022-09-17T07:54:54.867Z,999.71
2022-09-17T07:55:54.850Z,999.73
2022-09-17T07:56:54.856Z,999.72
2022-09-17T07:57:54.839Z,999.73
2022-09-17T07:58:54.852Z,999.69
2022-09-17T07:59:54.865Z,999.77
2022-09-17T08:00:54.846Z,999.78
2022-09-17T08:01:54.959Z,999.81
2022-09-17T08:02:54.991Z,999.75
2022-09-17T08:03:54.862Z,999.79
2022-09-17T08:04:54.895Z,999.74
2022-09-17T08:05:54.832Z,999.80
2022-09-17T08:06:54.856Z,999.79
2022-09-17T08:07:54.835Z,999.77
2022-09-17T08:08:54.840Z,999.74
2022-09-17T08:09:54.909Z,999.78
2022-09-17T08:10:54.842Z,999.76
2022-09-17T08:11:56.498Z,999.75
2022-09-17T08:12:54.824Z,999.78
2022-09-17T08:13:54.837Z,999.75
2022-09-17T08:14:54.803Z,999.74
2022-09-17T08:15:54.894Z,999.74
2022-09-17T08:16:54.898Z,999.66
2022-09-17T08:17:54.817Z,999.69
2022-09-17T08:18:54.813Z,999.68
2022-09-17T08:19:54.805Z,999.72
2022-09-17T08:20:54.815Z,999.73
2022-09-17T08:21:54.838Z,999.71
2022-09-17T08:22:54.805Z,999.69
2022-09-17T08:23:54.800Z,999.71
2022-09-17T08:24:54.791Z,999.71
2022-09-17T08:25:54.897Z,999.74
2022-09-17T08:26:54.815Z,999.76
2022-09-17T08:27:54.793Z,999.75
2022-09-17T08:28:54.802Z,999.76
2022-09-17T08:29:54.796Z,999.70
2022-09-17T08:30:54.911Z,999.72
2022-09-17T08:31:54.789Z,999.81
2022-09-17T08:32:54.833Z,999.81
2022-09-17T08:33:54.789Z,999.81
2022-09-17T08:34:58.077Z,999.82
2022-09-17T08:35:54.816Z,999.78
2022-09-17T08:36:54.781Z,999.75
2022-09-17T08:37:54.850Z,999.76
2022-09-17T08:38:54.779Z,999.72
2022-09-17T08:39:54.833Z,999.77
2022-09-17T08:40:54.788Z,999.76
2022-09-17T08:41:54.875Z,999.75
2022-09-17T08:42:54.778Z,999.70
2022-09-17T08:43:54.767Z,999.69
2022-09-17T08:44:58.536Z,999.71
2022-09-17T08:45:54.783Z,999.67
2022-09-17T08:46:54.828Z,999.73
2022-09-17T08:47:54.776Z,999.67
2022-09-17T08:48:54.825Z,999.69
2022-09-17T08:49:54.775Z,999.75
2022-09-17T08:51:00.642Z,999.82
2022-09-17T08:51:54.764Z,999.77
2022-09-17T08:52:54.770Z,999.81
2022-09-17T08:53:54.766Z,999.75
2022-09-17T08:54:54.765Z,999.82
2022-09-17T08:55:54.759Z,999.78
2022-09-17T08:56:54.770Z,999.76
2022-09-17T08:57:54.859Z,999.71
2022-09-17T08:58:54.777Z,999.79
2022-09-17T08:59:54.784Z,999.82
2022-09-17T09:00:54.748Z,999.80
2022-09-17T09:01:54.876Z,999.84
2022-09-17T09:02:54.802Z,999.82
2022-09-17T09:03:54.762Z,999.83
2022-09-17T09:04:54.753Z,999.81
2022-09-17T09:05:54.755Z,999.75
2022-09-17T09:06:54.753Z,999.87
2022-09-17T09:07:54.756Z,999.90
2022-09-17T09:08:54.753Z,999.89
2022-09-17T09:09:55.586Z,999.95
2022-09-17T09:10:54.748Z,999.95
2022-09-17T09:11:54.756Z,999.92
2022-09-17T09:12:54.746Z,999.94
2022-09-17T09:13:54.845Z,999.94
2022-09-17T09:14:54.753Z,999.95
2022-09-17T09:15:54.819Z,999.91
2022-09-17T09:16:54.743Z,1000.02
2022-09-17T09:17:54.742Z,1000.03
2022-09-17T09:18:54.750Z,1000.04
2022-09-17T09:19:54.768Z,1000.02
2022-09-17T09:20:54.758Z,1000.02
2022-09-17T09:21:54.738Z,999.97
2022-09-17T09:22:54.790Z,1000.02
2022-09-17T09:23:54.753Z,1000.03
2022-09-17T09:24:54.741Z,1000.05
2022-09-17T09:25:54.744Z,1000.01
2022-09-17T09:26:58.457Z,1000.10
2022-09-17T09:27:54.756Z,1000.11
2022-09-17T09:28:54.741Z,1000.07
2022-09-17T09:29:54.821Z,1000.10
2022-09-17T09:30:54.745Z,1000.08
2022-09-17T09:31:54.729Z,1000.14
2022-09-17T09:32:54.736Z,1000.13
2022-09-17T09:33:54.751Z,1000.12
2022-09-17T09:34:54.798Z,1000.15
2022-09-17T09:35:54.722Z,1000.15
2022-09-17T09:36:54.726Z,1000.17
2022-09-17T09:37:54.734Z,1000.18
2022-09-17T09:38:54.725Z,1000.14
2022-09-17T09:39:55.637Z,1000.16
2022-09-17T09:40:54.737Z,1000.16
2022-09-17T09:41:54.739Z,1000.18
2022-09-17T09:42:54.736Z,1000.12
2022-09-17T09:44:06.863Z,1000.17
2022-09-17T09:44:54.729Z,1000.16
2022-09-17T09:45:54.817Z,1000.11
2022-09-17T09:46:54.863Z,1000.19
2022-09-17T09:47:54.752Z,1000.19
2022-09-17T09:48:54.728Z,1000.16
2022-09-17T09:49:54.728Z,1000.14
2022-09-17T09:51:06.095Z,1000.16
2022-09-17T09:51:54.752Z,1000.21
2022-09-17T09:52:54.753Z,1000.19
2022-09-17T09:53:54.735Z,1000.22
2022-09-17T09:54:54.742Z,1000.23
2022-09-17T09:55:54.723Z,1000.25
2022-09-17T09:56:54.717Z,1000.27
2022-09-17T09:57:54.709Z,1000.25
2022-09-17T09:58:54.734Z,1000.19
2022-09-17T09:59:54.706Z,1000.23
2022-09-17T10:00:54.779Z,1000.22
2022-09-17T10:01:54.906Z,1000.27
2022-09-17T10:02:55.655Z,1000.24
2022-09-17T10:03:54.703Z,1000.25
2022-09-17T10:04:54.712Z,1000.27
2022-09-17T10:05:54.702Z,1000.22
2022-09-17T10:06:54.721Z,1000.33
2022-09-17T10:07:54.706Z,1000.24
2022-09-17T10:08:54.714Z,1000.26
2022-09-17T10:09:54.755Z,1000.26
2022-09-17T10:10:54.735Z,1000.25
2022-09-17T10:11:54.702Z,1000.20
2022-09-17T10:12:54.731Z,1000.24
2022-09-17T10:13:54.744Z,1000.29
2022-09-17T10:14:54.713Z,1000.28
2022-09-17T10:15:54.747Z,1000.30
2022-09-17T10:16:54.679Z,1000.27
2022-09-17T10:17:54.796Z,1000.34
2022-09-17T10:18:54.685Z,1000.29
2022-09-17T10:19:54.715Z,1000.29
2022-09-17T10:20:54.695Z,1000.25
2022-09-17T10:21:54.693Z,1000.30
2022-09-17T10:22:54.688Z,1000.31
2022-09-17T10:23:54.679Z,1000.30
2022-09-17T10:24:54.709Z,1000.33
2022-09-17T10:26:54.735Z,1000.30
2022-09-17T10:27:54.698Z,1000.29
2022-09-17T10:28:54.697Z,1000.29
2022-09-17T10:29:54.680Z,1000.24
2022-09-17T10:30:54.750Z,1000.24
2022-09-17T10:31:54.729Z,1000.30
2022-09-17T10:32:55.706Z,1000.29
2022-09-17T10:33:54.777Z,1000.30
2022-09-17T10:34:54.677Z,1000.33
2022-09-17T10:35:54.679Z,1000.29
2022-09-17T10:36:54.689Z,1000.32
2022-09-17T10:37:54.686Z,1000.35
2022-09-17T10:38:55.691Z,1000.43
2022-09-17T10:39:54.713Z,1000.51
2022-09-17T10:40:54.681Z,1000.55
2022-09-17T10:41:54.679Z,1000.47
2022-09-17T10:42:54.668Z,1000.46
2022-09-17T10:43:54.728Z,1000.44
2022-09-17T10:44:55.693Z,1000.47
2022-09-17T10:45:54.695Z,1000.47
2022-09-17T10:46:54.732Z,1000.45
2022-09-17T10:47:54.672Z,1000.45
2022-09-17T10:48:54.668Z,1000.42
2022-09-17T10:49:54.765Z,1000.45
2022-09-17T10:50:55.714Z,1000.46
2022-09-17T10:51:54.715Z,1000.49
2022-09-17T10:52:54.654Z,1000.41
2022-09-17T10:53:54.656Z,1000.46
2022-09-17T10:54:54.668Z,1000.50
2022-09-17T10:55:54.671Z,1000.48
2022-09-17T10:56:55.671Z,1000.51
2022-09-17T10:57:54.662Z,1000.53
2022-09-17T10:58:54.659Z,1000.55
2022-09-17T10:59:54.656Z,1000.57
2022-09-17T11:00:54.661Z,1000.50
2022-09-17T11:01:54.760Z,1000.53
2022-09-17T11:02:55.745Z,1000.54
2022-09-17T11:03:54.652Z,1000.57
2022-09-17T11:04:54.640Z,1000.49
2022-09-17T11:05:54.778Z,1000.56
2022-09-17T11:06:55.173Z,1000.56
2022-09-17T11:07:54.652Z,1000.55
2022-09-17T11:08:55.656Z,1000.49
2022-09-17T11:09:54.648Z,1000.52
2022-09-17T11:10:54.643Z,1000.53
2022-09-17T11:11:54.656Z,1000.50
2022-09-17T11:12:54.666Z,1000.48
2022-09-17T11:13:54.641Z,1000.46
2022-09-17T11:14:55.654Z,1000.49
2022-09-17T11:15:54.684Z,1000.51
2022-09-17T11:16:54.645Z,1000.51
2022-09-17T11:17:54.668Z,1000.46
2022-09-17T11:18:54.634Z,1000.54
2022-09-17T11:19:54.633Z,1000.51
2022-09-17T11:20:55.633Z,1000.38
2022-09-17T11:21:54.714Z,1000.47
2022-09-17T11:22:54.618Z,1000.49
2022-09-17T11:23:54.618Z,1000.44
2022-09-17T11:24:54.643Z,1000.46
2022-09-17T11:25:59.693Z,1000.43
2022-09-17T11:26:55.642Z,1000.47
2022-09-17T11:27:54.632Z,1000.43
2022-09-17T11:28:54.637Z,1000.40
2022-09-17T11:29:54.640Z,1000.46
2022-09-17T11:30:54.722Z,1000.39
2022-09-17T11:31:54.675Z,1000.44
2022-09-17T11:32:55.620Z,1000.41
2022-09-17T11:33:54.634Z,1000.36
2022-09-17T11:34:54.610Z,1000.40
2022-09-17T11:35:54.613Z,1000.45
2022-09-17T11:36:54.600Z,1000.44
2022-09-17T11:37:59.606Z,1000.46
2022-09-17T11:38:55.626Z,1000.50
2022-09-17T11:39:54.663Z,1000.50
2022-09-17T11:40:54.614Z,1000.52
2022-09-17T11:41:54.612Z,1000.50
2022-09-17T11:42:54.600Z,1000.54
2022-09-17T11:43:54.619Z,1000.47
2022-09-17T11:44:55.650Z,1000.49
2022-09-17T11:45:54.619Z,1000.46
2022-09-17T11:46:54.649Z,1000.48
2022-09-17T11:47:54.632Z,1000.47
2022-09-17T11:48:54.680Z,1000.38
2022-09-17T11:49:54.594Z,1000.43
2022-09-17T11:50:55.601Z,1000.35
2022-09-17T11:51:55.233Z,1000.36
2022-09-17T11:52:54.581Z,1000.43
2022-09-17T11:53:54.686Z,1000.36
2022-09-17T11:54:54.582Z,1000.32
2022-09-17T11:55:54.584Z,1000.38
2022-09-17T11:56:55.591Z,1000.34
2022-09-17T11:57:54.587Z,1000.31
2022-09-17T11:58:54.576Z,1000.25
2022-09-17T11:59:54.583Z,1000.25
2022-09-17T12:00:54.571Z,1000.28
2022-09-17T12:01:54.630Z,1000.34
2022-09-17T12:02:55.613Z,1000.29
2022-09-17T12:03:54.566Z,1000.26
2022-09-17T12:04:54.578Z,1000.26
2022-09-17T12:05:54.600Z,1000.33
2022-09-17T12:06:54.597Z,1000.32
2022-09-17T12:07:54.660Z,1000.35
2022-09-17T12:08:55.626Z,1000.28
2022-09-17T12:09:54.670Z,1000.30
2022-09-17T12:10:54.565Z,1000.27
2022-09-17T12:11:54.561Z,1000.31
2022-09-17T12:12:54.568Z,1000.23
2022-09-17T12:13:54.575Z,1000.30
2022-09-17T12:14:55.578Z,1000.30
2022-09-17T12:15:54.601Z,1000.27
2022-09-17T12:16:54.577Z,1000.35
2022-09-17T12:18:08.742Z,1000.36
2022-09-17T12:18:54.566Z,1000.33
2022-09-17T12:19:54.570Z,1000.33
2022-09-17T12:20:55.584Z,1000.37
2022-09-17T12:21:54.597Z,1000.42
2022-09-17T12:22:54.577Z,1000.50
2022-09-17T12:23:54.553Z,1000.51